createdAt,value
2022-12-19T00:01:16.142Z,17.70
2022-12-19T00:03:45.863Z,18.60
2022-12-19T00:06:13.443Z,17.83
2022-12-19T00:08:41.901Z,15.73
2022-12-19T00:11:10.535Z,18.37
2022-12-19T00:13:41.250Z,17.53
2022-12-19T00:16:09.918Z,17.33
2022-12-19T00:18:37.492Z,17.93
2022-12-19T00:21:06.793Z,16.50
2022-12-19T00:23:35.302Z,18.20
2022-12-19T00:26:10.052Z,19.80
2022-12-19T00:28:37.611Z,17.90
2022-12-19T00:31:05.733Z,18.50
2022-12-19T00:33:33.280Z,19.60
2022-12-19T00:36:04.336Z,17.97
2022-12-19T00:38:33.272Z,19.23
2022-12-19T00:41:07.246Z,18.07
2022-12-19T00:43:34.759Z,17.73
2022-12-19T00:46:03.306Z,18.37
2022-12-19T00:48:31.217Z,16.73
2022-12-19T00:51:02.182Z,19.37
2022-12-19T00:53:30.160Z,19.50
2022-12-19T00:56:02.101Z,17.73
2022-12-19T00:58:32.190Z,17.50
2022-12-19T01:01:06.512Z,18.80
2022-12-19T01:03:34.054Z,18.13
2022-12-19T01:06:01.557Z,17.93
2022-12-19T01:08:29.459Z,16.83
2022-12-19T01:11:00.531Z,19.13
2022-12-19T01:13:29.215Z,19.27
2022-12-19T01:15:57.183Z,17.13
2022-12-19T01:18:24.723Z,17.43
2022-12-19T01:20:52.289Z,18.83
2022-12-19T01:23:19.804Z,18.00
2022-12-19T01:25:49.886Z,16.90
2022-12-19T01:28:18.775Z,18.10
2022-12-19T01:30:47.137Z,17.53
2022-12-19T01:33:16.203Z,18.73
2022-12-19T01:35:44.198Z,17.80
2022-12-19T01:38:14.208Z,19.67
2022-12-19T01:40:41.696Z,18.37
2022-12-19T01:43:13.833Z,18.50
2022-12-19T01:45:46.374Z,19.17
2022-12-19T01:48:16.776Z,19.17
2022-12-19T01:51:01.259Z,18.53
2022-12-19T01:53:31.692Z,18.50
2022-12-19T01:55:59.138Z,18.07
2022-12-19T01:58:26.593Z,17.70
2022-12-19T02:00:55.621Z,18.17
2022-12-19T02:03:25.045Z,17.60
2022-12-19T02:05:53.515Z,19.47
2022-12-19T02:08:21.684Z,17.40
2022-12-19T02:10:49.208Z,17.07
2022-12-19T02:13:16.818Z,20.00
2022-12-19T02:15:50.115Z,20.33
2022-12-19T02:18:24.253Z,20.50
2022-12-19T02:20:58.031Z,18.07
2022-12-19T02:23:43.394Z,18.10
2022-12-19T02:26:21.059Z,18.07
2022-12-19T02:29:00.066Z,17.93
2022-12-19T02:31:30.307Z,17.73
2022-12-19T02:34:00.833Z,17.80
2022-12-19T02:36:38.992Z,17.93
2022-12-19T02:39:11.671Z,18.53
2022-12-19T02:41:44.117Z,17.60
2022-12-19T02:44:13.929Z,17.70
2022-12-19T02:46:44.561Z,17.67
2022-12-19T02:49:12.607Z,16.70
2022-12-19T02:51:44.696Z,18.73
2022-12-19T02:54:12.562Z,16.53
2022-12-19T02:56:44.505Z,18.47
2022-12-19T02:59:18.718Z,18.00
2022-12-19T03:01:50.347Z,17.30
2022-12-19T03:04:26.651Z,17.50
2022-12-19T03:06:55.003Z,16.97
2022-12-19T03:09:28.282Z,17.47
2022-12-19T03:11:59.518Z,16.33
2022-12-19T03:14:27.602Z,16.40
2022-12-19T03:16:56.956Z,17.80
2022-12-19T03:19:24.594Z,17.50
2022-12-19T03:21:52.861Z,17.40
2022-12-19T03:24:20.819Z,17.27
2022-12-19T03:26:51.683Z,19.43
2022-12-19T03:29:25.127Z,17.97
2022-12-19T03:31:52.939Z,16.87
2022-12-19T03:34:26.416Z,17.30
2022-12-19T03:36:56.208Z,17.37
2022-12-19T03:39:27.565Z,17.63
2022-12-19T03:42:13.619Z,16.83
2022-12-19T03:44:42.976Z,17.73
2022-12-19T03:47:12.580Z,17.27
2022-12-19T03:49:43.960Z,17.03
2022-12-19T03:52:13.832Z,18.53
2022-12-19T03:54:42.880Z,19.17
2022-12-19T03:57:11.663Z,16.07
2022-12-19T03:59:42.018Z,18.30
2022-12-19T04:02:10.014Z,18.53
2022-12-19T04:04:42.635Z,16.43
2022-12-19T04:07:13.453Z,16.93
2022-12-19T04:09:42.360Z,17.03
2022-12-19T04:12:15.467Z,16.57
2022-12-19T04:14:43.257Z,18.13
2022-12-19T04:17:15.917Z,17.63
2022-12-19T04:19:45.751Z,16.70
2022-12-19T04:22:16.976Z,16.93
2022-12-19T04:24:46.687Z,16.93
2022-12-19T04:27:15.299Z,15.97
2022-12-19T04:29:43.377Z,17.87
2022-12-19T04:32:11.597Z,16.73
2022-12-19T04:34:42.853Z,18.03
2022-12-19T04:37:11.859Z,16.43
2022-12-19T04:39:41.105Z,17.93
2022-12-19T04:42:08.634Z,17.13
2022-12-19T04:44:36.136Z,16.67
2022-12-19T04:47:03.734Z,17.83
2022-12-19T04:49:31.445Z,17.27
2022-12-19T04:51:59.100Z,17.70
2022-12-19T04:54:26.679Z,16.57
2022-12-19T04:56:56.011Z,16.37
2022-12-19T04:59:23.529Z,17.60
2022-12-19T05:01:51.201Z,17.67
2022-12-19T05:04:18.845Z,18.10
2022-12-19T05:06:46.476Z,15.73
2022-12-19T05:09:14.161Z,16.20
2022-12-19T05:11:41.683Z,16.90
2022-12-19T05:14:11.217Z,17.37
2022-12-19T05:16:38.684Z,17.30
2022-12-19T05:19:06.223Z,17.30
2022-12-19T05:21:33.924Z,17.67
2022-12-19T05:24:01.442Z,17.40
2022-12-19T05:26:29.180Z,16.57
2022-12-19T05:28:56.652Z,18.43
2022-12-19T05:31:25.915Z,20.37
2022-12-19T05:33:53.698Z,24.10
2022-12-19T05:36:21.328Z,19.67
2022-12-19T05:38:48.860Z,21.30
2022-12-19T05:41:17.576Z,20.93
2022-12-19T05:43:45.455Z,22.10
2022-12-19T05:46:13.189Z,21.20
2022-12-19T05:48:42.236Z,20.83
2022-12-19T05:51:10.475Z,19.97
2022-12-19T05:53:38.117Z,19.60
2022-12-19T05:56:06.497Z,19.13
2022-12-19T05:58:36.356Z,20.53
2022-12-19T06:01:04.238Z,18.17
2022-12-19T06:03:32.195Z,19.53
2022-12-19T06:06:04.868Z,20.57
2022-12-19T06:08:32.626Z,18.73
2022-12-19T06:11:01.235Z,19.80
2022-12-19T06:13:28.829Z,20.13
2022-12-19T06:15:59.956Z,20.43
2022-12-19T06:18:27.560Z,18.27
2022-12-19T06:20:58.840Z,18.90
2022-12-19T06:23:27.962Z,19.27
2022-12-19T06:25:57.126Z,21.17
2022-12-19T06:28:24.740Z,20.47
2022-12-19T06:30:52.253Z,21.17
2022-12-19T06:33:20.578Z,19.90
2022-12-19T06:35:48.138Z,19.93
2022-12-19T06:38:15.783Z,19.10
2022-12-19T06:41:02.400Z,17.80
2022-12-19T06:43:29.959Z,19.30
2022-12-19T06:45:58.187Z,18.37
2022-12-19T06:48:25.812Z,17.90
2022-12-19T06:50:53.340Z,19.50
2022-12-19T06:53:20.867Z,18.97
2022-12-19T06:55:50.125Z,19.00
2022-12-19T06:58:22.701Z,20.03
2022-12-19T07:00:53.548Z,18.97
2022-12-19T07:03:23.038Z,18.83
2022-12-19T07:05:51.107Z,22.13
2022-12-19T07:08:18.783Z,19.40
2022-12-19T07:10:46.384Z,17.43
2022-12-19T07:13:15.487Z,19.80
2022-12-19T07:15:43.248Z,18.60
2022-12-19T07:18:11.231Z,19.00
2022-12-19T07:20:44.911Z,18.40
2022-12-19T07:23:15.025Z,18.63
2022-12-19T07:25:42.894Z,19.43
2022-12-19T07:28:10.639Z,16.80
2022-12-19T07:30:39.536Z,19.87
2022-12-19T07:33:09.915Z,17.93
2022-12-19T07:35:38.767Z,17.90
2022-12-19T07:38:09.574Z,19.77
2022-12-19T07:40:37.314Z,18.43
2022-12-19T07:43:06.976Z,19.60
2022-12-19T07:45:34.878Z,20.07
2022-12-19T07:48:04.263Z,19.87
2022-12-19T07:50:32.040Z,21.07
2022-12-19T07:52:59.687Z,18.87
2022-12-19T07:55:27.559Z,21.57
2022-12-19T07:57:55.489Z,19.37
2022-12-19T08:00:23.332Z,20.07
2022-12-19T08:02:51.079Z,20.70
2022-12-19T08:05:20.295Z,18.63
2022-12-19T08:07:47.828Z,20.17
2022-12-19T08:10:15.987Z,20.00
2022-12-19T08:12:43.536Z,19.93
2022-12-19T08:15:11.407Z,20.23
2022-12-19T08:17:39.662Z,21.37
2022-12-19T08:20:08.729Z,21.97
2022-12-19T08:22:38.080Z,20.70
2022-12-19T08:25:07.183Z,19.90
2022-12-19T08:27:37.350Z,20.77
2022-12-19T08:30:05.863Z,20.00
2022-12-19T08:32:33.499Z,21.53
2022-12-19T08:35:01.062Z,20.27
2022-12-19T08:37:28.640Z,21.10
2022-12-19T08:39:57.720Z,20.87
2022-12-19T08:42:25.326Z,19.33
2022-12-19T08:44:52.938Z,20.17
2022-12-19T08:47:20.579Z,19.63
2022-12-19T08:49:48.132Z,18.50
2022-12-19T08:52:17.334Z,21.63
2022-12-19T08:54:45.247Z,20.67
2022-12-19T08:57:14.220Z,22.00
2022-12-19T08:59:41.794Z,22.17
2022-12-19T09:02:10.549Z,23.13
2022-12-19T09:05:57.825Z,20.37
2022-12-19T09:07:26.230Z,20.60
2022-12-19T09:09:54.075Z,21.33
2022-12-19T09:12:23.085Z,21.83
2022-12-19T09:14:50.771Z,19.80
2022-12-19T09:17:18.376Z,20.60
2022-12-19T09:19:48.041Z,20.30
2022-12-19T09:22:16.273Z,21.10
2022-12-19T09:24:43.837Z,22.30
2022-12-19T09:27:11.404Z,20.90
2022-12-19T09:29:40.470Z,20.03
2022-12-19T09:32:08.070Z,21.97
2022-12-19T09:34:37.809Z,21.43
2022-12-19T09:37:07.095Z,20.77
2022-12-19T09:39:35.440Z,21.43
2022-12-19T09:42:11.390Z,21.43
2022-12-19T09:44:53.868Z,21.10
2022-12-19T09:47:24.375Z,20.63
2022-12-19T09:49:54.002Z,21.30
2022-12-19T09:52:25.716Z,19.30
2022-12-19T09:54:57.440Z,20.67
2022-12-19T09:57:27.107Z,19.87
2022-12-19T09:59:56.110Z,21.73
2022-12-19T10:02:35.624Z,21.07
2022-12-19T10:05:31.123Z,22.73
2022-12-19T10:08:09.209Z,22.57
2022-12-19T10:12:36.543Z,21.50
2022-12-19T10:13:37.055Z,22.23
2022-12-19T10:16:06.649Z,21.53
2022-12-19T10:18:42.969Z,22.00
2022-12-19T10:21:12.531Z,22.00
2022-12-19T10:23:48.833Z,23.43
2022-12-19T10:26:19.379Z,21.10
2022-12-19T10:28:54.938Z,20.43
2022-12-19T10:31:23.764Z,21.00
2022-12-19T10:33:56.911Z,21.17
2022-12-19T10:36:48.675Z,21.20
2022-12-19T10:39:17.787Z,20.97
2022-12-19T10:41:46.000Z,21.00
2022-12-19T10:44:15.811Z,20.80
2022-12-19T10:46:46.000Z,22.50
2022-12-19T10:49:17.211Z,22.20
2022-12-19T10:51:54.034Z,22.13
2022-12-19T10:54:21.646Z,21.00
2022-12-19T10:56:49.356Z,20.73
2022-12-19T10:59:18.182Z,22.17
2022-12-19T11:01:46.770Z,20.77
2022-12-19T11:04:31.698Z,20.40
2022-12-19T11:07:07.151Z,22.70
2022-12-19T11:09:38.810Z,20.80
2022-12-19T11:14:41.490Z,22.40
2022-12-19T11:20:38.178Z,21.37
2022-12-19T11:26:07.147Z,21.63
2022-12-19T11:29:42.049Z,20.80
2022-12-19T11:30:46.257Z,21.10
2022-12-19T11:30:48.174Z,21.57
2022-12-19T11:32:40.414Z,21.33
2022-12-19T11:35:16.302Z,20.37
2022-12-19T11:37:48.841Z,21.63
2022-12-19T11:40:18.665Z,21.17
2022-12-19T11:43:10.952Z,20.27
2022-12-19T11:45:41.974Z,20.60
2022-12-19T11:48:13.708Z,20.37
2022-12-19T11:50:50.637Z,20.03
2022-12-19T11:53:22.261Z,18.20
2022-12-19T11:55:51.258Z,19.10
2022-12-19T11:58:18.807Z,20.90
2022-12-19T12:00:50.604Z,21.25
2022-12-19T12:03:37.527Z,20.10
2022-12-19T12:06:08.715Z,21.15
2022-12-19T12:10:20.188Z,20.73
2022-12-19T12:17:58.498Z,21.17
2022-12-19T12:28:42.552Z,20.92
2022-12-19T12:29:13.896Z,21.60
2022-12-19T12:31:04.395Z,21.48
2022-12-19T12:31:15.935Z,20.63
2022-12-19T12:31:38.593Z,21.10
2022-12-19T12:32:00.361Z,21.08
2022-12-19T12:35:34.974Z,21.08
2022-12-19T12:35:40.929Z,20.67
2022-12-19T12:40:48.097Z,21.45
2022-12-19T12:43:23.791Z,21.85
2022-12-19T12:45:51.352Z,22.42
2022-12-19T12:48:22.362Z,20.77
2022-12-19T12:50:55.040Z,20.48
2022-12-19T12:53:25.500Z,20.45
2022-12-19T12:55:55.566Z,20.13
2022-12-19T12:58:41.594Z,20.73
2022-12-19T13:01:12.716Z,20.23
2022-12-19T13:03:42.014Z,22.00
2022-12-19T13:06:22.759Z,20.80
2022-12-19T13:08:51.098Z,20.13
2022-12-19T13:11:54.115Z,21.33
2022-12-19T13:14:49.042Z,22.15
2022-12-19T13:17:25.617Z,21.63
2022-12-19T13:19:54.784Z,20.30
2022-12-19T13:22:37.727Z,21.83
2022-12-19T13:25:28.750Z,22.27
2022-12-19T13:27:59.803Z,22.30
2022-12-19T13:30:28.367Z,22.97
2022-12-19T13:33:12.959Z,21.02
2022-12-19T13:38:41.160Z,22.30
2022-12-19T13:39:59.032Z,23.02
2022-12-19T13:41:46.593Z,22.52
2022-12-19T13:44:14.344Z,23.95
2022-12-19T13:46:43.141Z,21.83
2022-12-19T13:49:15.945Z,22.30
2022-12-19T13:51:46.812Z,21.77
2022-12-19T13:54:22.888Z,23.57
2022-12-19T13:56:50.981Z,22.55
2022-12-19T13:59:18.885Z,22.90
2022-12-19T14:01:47.117Z,22.20
2022-12-19T14:04:26.384Z,22.77
2022-12-19T14:06:57.148Z,24.40
2022-12-19T14:11:30.039Z,26.13
2022-12-19T14:13:50.914Z,23.50
2022-12-19T14:15:30.364Z,23.97
2022-12-19T14:18:41.691Z,25.00
2022-12-19T14:22:09.846Z,25.47
2022-12-19T14:23:43.671Z,24.53
2022-12-19T14:28:26.483Z,24.80
2022-12-19T14:29:03.806Z,25.13
2022-12-19T14:31:33.098Z,25.47
2022-12-19T14:36:53.046Z,25.33
2022-12-19T14:39:28.986Z,24.10
2022-12-19T14:42:20.253Z,24.53
2022-12-19T14:52:11.610Z,25.17
2022-12-19T14:54:05.918Z,26.60
2022-12-19T14:54:30.491Z,26.33
2022-12-19T14:54:50.327Z,22.77
2022-12-19T14:59:01.867Z,17.90
2022-12-19T15:01:30.617Z,15.60
2022-12-19T15:04:50.818Z,16.40
2022-12-19T15:07:09.396Z,22.00
2022-12-19T15:11:02.454Z,21.87
2022-12-19T15:14:51.282Z,27.00
2022-12-19T15:15:45.639Z,25.80
2022-12-19T15:18:22.017Z,26.00
2022-12-19T15:20:49.893Z,25.97
2022-12-19T15:23:21.963Z,27.57
2022-12-19T15:26:08.428Z,27.67
2022-12-19T15:28:41.121Z,26.23
2022-12-19T15:31:13.327Z,23.70
2022-12-19T15:34:06.737Z,25.10
2022-12-19T15:36:28.645Z,25.87
2022-12-19T15:38:59.354Z,25.93
2022-12-19T15:41:28.819Z,25.73
2022-12-19T15:44:05.123Z,25.30
2022-12-19T15:46:33.603Z,26.63
2022-12-19T15:49:01.364Z,28.17
2022-12-19T15:51:29.169Z,28.77
2022-12-19T15:54:04.177Z,28.13
2022-12-19T15:56:47.933Z,26.83
2022-12-19T15:59:20.610Z,27.17
2022-12-19T16:01:48.373Z,28.90
2022-12-19T16:04:16.396Z,27.67
2022-12-19T16:06:44.226Z,27.47
2022-12-19T16:09:16.987Z,28.07
2022-12-19T16:11:46.075Z,26.30
2022-12-19T16:14:14.344Z,27.30
2022-12-19T16:16:42.042Z,29.87
2022-12-19T16:19:21.233Z,30.20
2022-12-19T16:21:48.759Z,29.37
2022-12-19T16:24:16.346Z,30.40
2022-12-19T16:26:44.097Z,28.63
2022-12-19T16:29:18.264Z,30.60
2022-12-19T16:31:46.109Z,27.33
2022-12-19T16:34:15.839Z,26.90
2022-12-19T16:36:43.668Z,29.03
2022-12-19T16:39:11.466Z,27.33
2022-12-19T16:41:41.797Z,27.50
2022-12-19T16:44:19.075Z,29.07
2022-12-19T16:46:51.282Z,37.67
2022-12-19T16:49:19.912Z,32.57
2022-12-19T16:51:47.829Z,29.17
2022-12-19T16:54:16.831Z,32.40
2022-12-19T16:56:45.904Z,28.93
2022-12-19T16:59:16.515Z,27.50
2022-12-19T17:01:45.142Z,28.13
2022-12-19T17:04:18.645Z,27.77
2022-12-19T17:06:46.349Z,26.37
2022-12-19T17:09:15.638Z,26.97
2022-12-19T17:11:46.497Z,29.97
2022-12-19T17:14:17.039Z,30.33
2022-12-19T17:16:44.947Z,37.43
2022-12-19T17:19:18.134Z,29.57
2022-12-19T17:21:47.122Z,28.80
2022-12-19T17:24:20.636Z,27.57
2022-12-19T17:26:52.344Z,27.50
2022-12-19T17:29:28.052Z,26.20
2022-12-19T17:32:01.046Z,28.33
2022-12-19T17:34:39.921Z,28.70
2022-12-19T17:37:13.528Z,28.53
2022-12-19T17:42:59.533Z,37.07
2022-12-19T17:45:27.997Z,40.00
2022-12-19T17:48:02.275Z,33.67
2022-12-19T17:50:33.111Z,33.50
2022-12-19T17:53:13.010Z,31.13
2022-12-19T17:55:40.698Z,31.97
2022-12-19T17:58:09.648Z,30.80
2022-12-19T18:00:37.945Z,31.80
2022-12-19T18:03:07.782Z,33.50
2022-12-19T18:05:36.914Z,32.40
2022-12-19T18:08:04.973Z,33.90
2022-12-19T18:10:34.189Z,32.33
2022-12-19T18:13:01.801Z,33.10
2022-12-19T18:15:29.393Z,32.70
2022-12-19T18:17:58.392Z,30.63
2022-12-19T18:20:31.592Z,31.27
2022-12-19T18:23:00.649Z,29.40
2022-12-19T18:25:29.009Z,31.37
2022-12-19T18:27:58.093Z,32.50
2022-12-19T18:30:25.902Z,34.37
2022-12-19T18:32:56.282Z,32.77
2022-12-19T18:35:25.617Z,34.47
2022-12-19T18:37:53.542Z,34.17
2022-12-19T18:40:27.574Z,33.57
2022-12-19T18:43:00.069Z,34.00
2022-12-19T18:45:31.031Z,33.83
2022-12-19T18:48:00.572Z,31.50
2022-12-19T18:50:28.451Z,32.33
2022-12-19T18:52:56.264Z,31.17
2022-12-19T18:55:24.779Z,31.77
2022-12-19T18:57:52.908Z,32.13
2022-12-19T19:00:22.971Z,31.73
2022-12-19T19:02:52.063Z,31.23
2022-12-19T19:05:20.933Z,31.43
2022-12-19T19:07:48.525Z,31.50
2022-12-19T19:10:18.052Z,31.60
2022-12-19T19:12:45.672Z,31.30
2022-12-19T19:15:13.312Z,32.20
2022-12-19T19:17:43.187Z,30.57
2022-12-19T19:20:11.143Z,29.93
2022-12-19T19:22:38.950Z,31.63
2022-12-19T19:25:07.040Z,33.27
2022-12-19T19:27:34.637Z,31.47
2022-12-19T19:30:02.250Z,29.63
2022-12-19T19:32:29.827Z,29.23
2022-12-19T19:34:59.649Z,30.53
2022-12-19T19:37:28.479Z,28.50
2022-12-19T19:39:56.062Z,29.83
2022-12-19T19:42:23.687Z,27.90
2022-12-19T19:44:51.312Z,28.23
2022-12-19T19:47:25.151Z,28.73
2022-12-19T19:49:52.710Z,29.07
2022-12-19T19:52:21.604Z,28.40
2022-12-19T19:54:49.264Z,30.43
2022-12-19T19:57:16.833Z,29.23
2022-12-19T19:59:44.979Z,31.33
2022-12-19T20:02:16.863Z,30.90
2022-12-19T20:04:45.687Z,31.37
2022-12-19T20:07:13.660Z,28.23
2022-12-19T20:09:42.706Z,33.20
2022-12-19T20:12:10.348Z,30.60
2022-12-19T20:14:38.001Z,31.50
2022-12-19T20:17:05.572Z,30.53
2022-12-19T20:19:33.121Z,28.20
2022-12-19T20:22:00.808Z,30.57
2022-12-19T20:24:29.355Z,29.53
2022-12-19T20:26:58.337Z,29.67
2022-12-19T20:29:25.860Z,30.43
2022-12-19T20:31:53.457Z,28.67
2022-12-19T20:34:21.006Z,29.43
2022-12-19T20:36:48.589Z,30.87
2022-12-19T20:39:22.005Z,29.37
2022-12-19T20:41:50.233Z,29.33
2022-12-19T20:44:24.044Z,28.33
2022-12-19T20:46:52.420Z,27.60
2022-12-19T20:49:20.192Z,28.03
2022-12-19T20:51:48.249Z,26.97
2022-12-19T20:54:16.481Z,29.97
2022-12-19T20:56:44.012Z,28.97
2022-12-19T20:59:13.866Z,29.27
2022-12-19T21:01:42.809Z,28.70
2022-12-19T21:04:10.603Z,31.73
2022-12-19T21:06:38.480Z,32.87
2022-12-19T21:09:06.503Z,28.50
2022-12-19T21:11:35.623Z,27.87
2022-12-19T21:14:03.234Z,28.97
2022-12-19T21:16:30.924Z,28.57
2022-12-19T21:19:00.024Z,27.50
2022-12-19T21:21:27.838Z,28.30
2022-12-19T21:23:55.751Z,28.70
2022-12-19T21:26:24.002Z,26.77
2022-12-19T21:28:51.843Z,28.00
2022-12-19T21:31:20.804Z,28.83
2022-12-19T21:33:48.997Z,28.60
2022-12-19T21:36:20.252Z,28.23
2022-12-19T21:38:48.605Z,28.47
2022-12-19T21:41:19.133Z,28.17
2022-12-19T21:43:47.789Z,27.60
2022-12-19T21:46:16.491Z,28.03
2022-12-19T21:48:45.206Z,28.40
2022-12-19T21:51:13.330Z,27.57
2022-12-19T21:53:44.574Z,27.03
2022-12-19T21:56:19.649Z,27.47
2022-12-19T21:58:47.156Z,26.30
2022-12-19T22:01:15.709Z,27.20
2022-12-19T22:03:43.539Z,27.10
2022-12-19T22:06:15.856Z,28.20
2022-12-19T22:08:44.714Z,26.70
2022-12-19T22:11:14.826Z,25.93
2022-12-19T22:13:42.705Z,25.77
2022-12-19T22:16:11.388Z,27.13
2022-12-19T22:18:39.364Z,26.47
2022-12-19T22:21:07.635Z,25.70
2022-12-19T22:23:35.410Z,26.97
2022-12-19T22:26:05.487Z,27.67
2022-12-19T22:28:33.493Z,27.20
2022-12-19T22:31:01.290Z,28.37
2022-12-19T22:33:28.908Z,27.30
2022-12-19T22:35:56.511Z,27.73
2022-12-19T22:38:26.047Z,27.13
2022-12-19T22:40:53.552Z,26.50
2022-12-19T22:43:23.747Z,25.90
2022-12-19T22:45:51.396Z,25.10
2022-12-19T22:48:18.912Z,25.23
2022-12-19T22:50:47.531Z,24.13
2022-12-19T22:53:15.417Z,25.17
2022-12-19T22:55:43.202Z,25.07
2022-12-19T22:58:10.740Z,25.00
2022-12-19T23:00:39.699Z,23.53
2022-12-19T23:03:07.638Z,23.83
2022-12-19T23:05:36.465Z,25.43
2022-12-19T23:08:04.049Z,26.03
2022-12-19T23:10:31.635Z,25.97
2022-12-19T23:12:59.180Z,25.80
2022-12-19T23:15:26.834Z,27.90
2022-12-19T23:17:55.729Z,26.73
2022-12-19T23:20:23.293Z,25.63
2022-12-19T23:22:50.799Z,26.80
2022-12-19T23:25:19.134Z,26.83
2022-12-19T23:27:47.245Z,26.30
2022-12-19T23:30:14.744Z,26.70
2022-12-19T23:32:48.747Z,25.20
2022-12-19T23:35:19.664Z,24.77
2022-12-19T23:37:47.307Z,26.77
2022-12-19T23:40:14.917Z,26.93
2022-12-19T23:42:42.461Z,25.77
2022-12-19T23:45:10.561Z,25.83
2022-12-19T23:47:38.197Z,24.97
2022-12-19T23:50:06.314Z,25.33
2022-12-19T23:52:35.248Z,24.93
2022-12-19T23:55:02.783Z,24.77
2022-12-19T23:57:30.475Z,25.10
2022-12-19T23:59:57.999Z,22.83
